Time;durP1;ratioP1;P1;durP2;ratioP2;P2;SDS_P1;SDS_P2;PMS_P1;PMS_P2;Temp;Humidity;BMP_temperature;BMP_pressure;BME280_temperature;BME280_humidity;BME280_pressure;Samples;Min_cycle;Max_cycle;Signal;HPM_P1;HPM_P2
2021/07/01 00:01:51;;;;;;;9.35;3.63;;;22.20;73.80;;;;;;5060102;28;20112;-60
2021/07/01 00:04:17;;;;;;;7.00;2.38;;;22.10;74.30;;;;;;5065962;28;20419;-60
2021/07/01 00:06:43;;;;;;;4.68;2.15;;;22.10;73.40;;;;;;5073359;28;20154;-60
2021/07/01 00:09:17;;;;;;;6.40;2.33;;;22.10;72.70;;;;;;5064698;28;20510;-60
2021/07/01 00:11:47;;;;;;;6.93;1.98;;;22.20;72.30;;;;;;5062940;28;20086;-60
2021/07/01 00:14:16;;;;;;;6.20;2.40;;;22.20;71.80;;;;;;5065586;28;20099;-60
2021/07/01 00:16:42;;;;;;;5.20;2.25;;;22.20;72.00;;;;;;5064020;28;20403;-61
2021/07/01 00:19:08;;;;;;;8.20;2.58;;;22.40;70.60;;;;;;5052940;28;20032;-59
2021/07/01 00:21:34;;;;;;;8.80;2.90;;;22.50;69.90;;;;;;5069855;28;20028;-60
2021/07/01 00:24:00;;;;;;;6.00;3.38;;;22.60;70.10;;;;;;5072628;28;20029;-60
2021/07/01 00:26:26;;;;;;;11.48;4.00;;;22.70;69.20;;;;;;5074611;28;20024;-60
2021/07/01 00:28:52;;;;;;;8.27;4.35;;;22.80;68.90;;;;;;5074309;28;20037;-60
2021/07/01 00:31:18;;;;;;;6.93;3.80;;;22.90;68.60;;;;;;5073049;28;20032;-60
2021/07/01 00:33:43;;;;;;;7.82;3.92;;;22.90;68.80;;;;;;5074429;28;20024;-58
2021/07/01 00:36:09;;;;;;;9.30;3.95;;;22.90;68.60;;;;;;5039367;28;20449;-58
2021/07/01 00:38:35;;;;;;;10.07;3.85;;;22.90;68.60;;;;;;5074698;28;20443;-58
2021/07/01 00:41:01;;;;;;;12.57;6.68;;;22.90;68.60;;;;;;5074361;28;20027;-59
2021/07/01 00:43:27;;;;;;;6.00;3.00;;;22.80;68.90;;;;;;5039227;28;20396;-58
2021/07/01 00:45:53;;;;;;;6.45;2.45;;;22.80;68.80;;;;;;5074506;28;20039;-58
2021/07/01 00:48:19;;;;;;;7.75;2.70;;;22.80;68.80;;;;;;5072393;28;20052;-60
2021/07/01 00:50:45;;;;;;;6.32;2.47;;;22.80;69.20;;;;;;5055891;28;20036;-58
2021/07/01 00:53:11;;;;;;;7.90;2.67;;;22.90;68.80;;;;;;5074130;28;20028;-60
2021/07/01 00:55:38;;;;;;;6.68;3.20;;;22.80;68.90;;;;;;5074257;28;20091;-58
2021/07/01 00:58:06;;;;;;;5.05;1.98;;;22.80;69.30;;;;;;5074222;28;20031;-60
2021/07/01 01:03:16;;;;;;;5.07;2.40;;;22.70;69.60;;;;;;5074193;28;20070;-59
2021/07/01 01:05:42;;;;;;;9.23;3.85;;;22.50;70.60;;;;;;5073963;28;20024;-59
2021/07/01 01:08:07;;;;;;;4.80;2.30;;;22.40;70.80;;;;;;5073851;28;20072;-59
2021/07/01 01:10:33;;;;;;;5.65;2.55;;;22.40;71.20;;;;;;5012846;28;20097;-59
2021/07/01 01:12:59;;;;;;;6.68;2.85;;;22.40;71.70;;;;;;5044424;28;20040;-59
2021/07/01 01:15:28;;;;;;;5.68;2.30;;;22.30;71.50;;;;;;5053373;28;20540;-59
2021/07/01 01:17:53;;;;;;;6.60;2.60;;;22.30;71.90;;;;;;5055008;28;20123;-59
2021/07/01 01:20:19;;;;;;;5.43;2.40;;;22.30;72.30;;;;;;5071931;28;20480;-59
2021/07/01 01:22:45;;;;;;;6.35;2.65;;;22.20;71.80;;;;;;5071851;28;20412;-59
2021/07/01 01:25:11;;;;;;;5.25;2.45;;;22.30;72.00;;;;;;5073651;28;20479;-59
2021/07/01 01:27:37;;;;;;;10.05;2.47;;;22.40;71.50;;;;;;5071750;28;20040;-59
2021/07/01 01:30:05;;;;;;;5.95;2.25;;;22.40;71.10;;;;;;5055142;28;20033;-59
2021/07/01 01:32:30;;;;;;;9.05;2.50;;;22.40;71.20;;;;;;5071412;28;20043;-59
2021/07/01 01:34:56;;;;;;;7.00;2.20;;;22.40;71.30;;;;;;5071265;28;20397;-59
2021/07/01 01:37:22;;;;;;;4.03;2.22;;;22.50;70.80;;;;;;5071563;28;20033;-59
2021/07/01 01:39:50;;;;;;;4.53;1.70;;;22.60;70.70;;;;;;5067219;28;20051;-59
2021/07/01 01:42:17;;;;;;;5.65;2.42;;;22.50;70.80;;;;;;5068999;28;20037;-59
2021/07/01 01:44:42;;;;;;;5.15;1.77;;;22.50;71.00;;;;;;5071381;28;20430;-59
2021/07/01 01:47:18;;;;;;;3.22;1.70;;;22.50;70.80;;;;;;5071131;28;20043;-59
2021/07/01 01:49:46;;;;;;;4.03;1.63;;;22.40;71.50;;;;;;5068527;28;20033;-59
2021/07/01 01:52:11;;;;;;;5.78;1.77;;;22.40;71.70;;;;;;5071280;28;20546;-60
2021/07/01 01:54:37;;;;;;;4.72;1.85;;;22.50;71.00;;;;;;5021222;28;20032;-59
2021/07/01 01:57:03;;;;;;;4.10;1.60;;;22.50;71.20;;;;;;5054451;28;20083;-59
2021/07/01 01:59:29;;;;;;;4.38;1.67;;;22.50;71.20;;;;;;5071169;28;20036;-59
2021/07/01 02:01:55;;;;;;;2.63;1.10;;;22.60;71.00;;;;;;5071201;28;20029;-60
2021/07/01 02:04:20;;;;;;;2.50;1.13;;;22.60;70.60;;;;;;5073062;28;20380;-59
2021/07/01 02:06:46;;;;;;;3.60;2.30;;;22.70;70.20;;;;;;5073221;28;20493;-59
2021/07/01 02:09:12;;;;;;;4.88;1.42;;;22.70;70.00;;;;;;5073387;28;20107;-60
2021/07/01 02:11:38;;;;;;;7.28;1.50;;;22.60;70.30;;;;;;5073025;28;20047;-60
2021/07/01 02:14:03;;;;;;;6.10;1.27;;;22.60;70.40;;;;;;5072104;28;20025;-60
2021/07/01 02:16:29;;;;;;;4.30;1.48;;;22.60;70.50;;;;;;5071194;28;20433;-59
2021/07/01 02:18:55;;;;;;;7.28;1.13;;;22.60;70.50;;;;;;5073202;28;20103;-59
2021/07/01 02:21:21;;;;;;;3.90;1.30;;;22.50;70.50;;;;;;5073020;28;20073;-59
2021/07/01 02:23:48;;;;;;;3.30;1.30;;;22.40;70.90;;;;;;5073040;28;20116;-59
2021/07/01 02:26:14;;;;;;;5.93;1.30;;;22.30;71.20;;;;;;5072950;28;20479;-59
2021/07/01 02:28:40;;;;;;;4.18;1.23;;;22.20;71.60;;;;;;5072777;28;20037;-59
2021/07/01 02:31:06;;;;;;;8.02;2.53;;;22.10;72.60;;;;;;5073048;28;20036;-59
2021/07/01 02:33:32;;;;;;;3.67;1.42;;;21.90;72.90;;;;;;5054538;28;20033;-59
2021/07/01 02:35:58;;;;;;;4.50;1.48;;;21.70;73.30;;;;;;5044336;28;20471;-59
2021/07/01 02:38:25;;;;;;;3.42;1.58;;;21.60;73.60;;;;;;5059676;28;20025;-59
2021/07/01 02:40:51;;;;;;;4.38;1.40;;;21.60;74.30;;;;;;5054741;28;20033;-59
2021/07/01 02:43:16;;;;;;;3.15;1.38;;;21.50;74.60;;;;;;5052802;28;20064;-60
2021/07/01 02:45:42;;;;;;;3.92;1.73;;;21.40;75.00;;;;;;5084568;28;20062;-59
2021/07/01 02:48:08;;;;;;;6.85;1.40;;;21.40;75.20;;;;;;5052455;28;20044;-59
2021/07/01 02:50:34;;;;;;;5.10;1.50;;;21.30;76.10;;;;;;5046608;28;20048;-59
2021/07/01 02:52:59;;;;;;;4.05;1.23;;;21.30;76.30;;;;;;5064044;28;20032;-59
2021/07/01 02:55:25;;;;;;;5.90;1.67;;;21.10;75.90;;;;;;5068837;28;20108;-59
2021/07/01 02:57:51;;;;;;;2.20;1.33;;;21.10;76.40;;;;;;5070764;28;20043;-59
2021/07/01 03:00:17;;;;;;;3.47;1.48;;;21.10;76.50;;;;;;5056176;28;20035;-60
2021/07/01 03:02:43;;;;;;;5.38;1.55;;;21.00;76.60;;;;;;5034444;28;20033;-59
2021/07/01 03:05:09;;;;;;;4.28;1.20;;;21.00;77.00;;;;;;5054430;28;20435;-59
2021/07/01 03:07:35;;;;;;;4.28;1.20;;;20.90;77.50;;;;;;5056580;28;20029;-59
2021/07/01 03:10:02;;;;;;;5.68;1.80;;;20.80;78.30;;;;;;5056241;28;20426;-59
2021/07/01 03:12:28;;;;;;;5.50;1.33;;;20.70;78.90;;;;;;5071028;28;20037;-59
2021/07/01 03:14:54;;;;;;;2.95;1.30;;;20.60;79.40;;;;;;5037807;28;20508;-59
2021/07/01 03:17:19;;;;;;;6.85;1.98;;;20.70;79.30;;;;;;5068164;28;20031;-59
2021/07/01 03:19:45;;;;;;;7.05;1.50;;;20.70;79.40;;;;;;5064825;28;20025;-59
2021/07/01 03:22:12;;;;;;;7.60;1.50;;;20.80;79.40;;;;;;5056542;28;20032;-59
2021/07/01 03:24:38;;;;;;;8.63;1.50;;;20.80;79.40;;;;;;5063980;28;20028;-59
2021/07/01 03:27:04;;;;;;;5.30;1.67;;;20.90;79.20;;;;;;5065677;28;20439;-59
2021/07/01 03:29:31;;;;;;;7.35;1.75;;;20.90;79.20;;;;;;5064055;28;20017;-60
2021/07/01 03:31:57;;;;;;;4.22;1.30;;;21.00;79.30;;;;;;5065975;28;20341;-59
2021/07/01 03:34:22;;;;;;;6.93;1.58;;;21.00;79.90;;;;;;5065297;28;20077;-59
2021/07/01 03:36:49;;;;;;;7.30;1.77;;;21.00;80.30;;;;;;5064400;28;20028;-59
2021/07/01 03:39:14;;;;;;;4.53;1.42;;;21.00;80.40;;;;;;5064300;28;20061;-59
2021/07/01 03:41:40;;;;;;;3.08;1.17;;;21.10;80.60;;;;;;5065217;28;20086;-59
2021/07/01 03:44:08;;;;;;;7.10;1.73;;;21.20;80.70;;;;;;5066068;28;20023;-59
2021/07/01 03:46:34;;;;;;;9.60;1.90;;;21.20;80.90;;;;;;5060883;28;20032;-59
2021/07/01 03:49:00;;;;;;;5.97;1.42;;;21.20;80.90;;;;;;5066973;28;20035;-59
2021/07/01 03:51:26;;;;;;;9.82;1.90;;;21.20;81.50;;;;;;5064221;28;20092;-59
2021/07/01 03:53:51;;;;;;;5.03;1.83;;;21.40;81.60;;;;;;5052901;28;20040;-59
2021/07/01 03:56:17;;;;;;;6.13;1.52;;;21.50;81.70;;;;;;5039806;28;20115;-59
2021/07/01 03:58:43;;;;;;;4.53;1.42;;;21.60;81.10;;;;;;5072530;28;20145;-59
2021/07/01 04:01:09;;;;;;;4.80;1.75;;;21.50;81.20;;;;;;5055209;28;20036;-59
2021/07/01 04:03:35;;;;;;;4.55;1.67;;;21.50;81.50;;;;;;5055085;28;20057;-59
2021/07/01 04:06:02;;;;;;;5.43;1.45;;;21.60;81.30;;;;;;5054592;28;20354;-59
2021/07/01 04:08:28;;;;;;;6.43;1.55;;;21.90;81.20;;;;;;5055130;28;20047;-59
2021/07/01 04:10:56;;;;;;;13.25;1.95;;;22.10;80.80;;;;;;5055006;28;20151;-59
2021/07/01 04:13:22;;;;;;;4.47;1.67;;;22.20;81.20;;;;;;5055097;28;20116;-59
2021/07/01 04:15:47;;;;;;;3.60;1.35;;;22.20;81.00;;;;;;5054975;28;20567;-59
2021/07/01 04:18:15;;;;;;;5.18;1.60;;;22.50;81.10;;;;;;5080412;28;20036;-59
2021/07/01 04:20:42;;;;;;;4.45;1.80;;;22.40;82.10;;;;;;5072114;28;20505;-59
2021/07/01 04:23:08;;;;;;;8.60;1.80;;;22.40;81.40;;;;;;5072208;28;20519;-59
2021/07/01 04:25:35;;;;;;;5.65;1.67;;;22.50;81.10;;;;;;5056098;28;20086;-59
2021/07/01 04:28:01;;;;;;;5.70;1.63;;;;;;;;;;5054115;28;20362;-59
2021/07/01 04:30:27;;;;;;;5.18;1.77;;;22.70;98.20;;;;;;5055899;28;20025;-60
2021/07/01 04:32:54;;;;;;;7.15;1.73;;;22.80;93.70;;;;;;5028929;28;20062;-59
2021/07/01 04:35:20;;;;;;;5.28;2.50;;;22.80;95.30;;;;;;5072389;28;20056;-60
2021/07/01 04:37:45;;;;;;;6.93;1.60;;;22.60;91.40;;;;;;5056049;28;20384;-59
2021/07/01 04:40:12;;;;;;;5.10;2.20;;;22.60;89.20;;;;;;5073976;28;20044;-59
2021/07/01 04:42:38;;;;;;;4.82;1.75;;;22.60;87.10;;;;;;5055993;28;20033;-59
2021/07/01 04:45:06;;;;;;;7.75;1.70;;;22.50;87.60;;;;;;5054305;28;20471;-59
2021/07/01 04:47:32;;;;;;;4.57;1.60;;;22.50;86.10;;;;;;5035772;28;20041;-59
2021/07/01 04:49:58;;;;;;;8.57;1.80;;;22.50;86.20;;;;;;5054293;28;20039;-59
2021/07/01 04:52:23;;;;;;;8.10;1.92;;;22.50;87.10;;;;;;5071132;28;20116;-59
2021/07/01 04:54:49;;;;;;;6.97;1.90;;;22.40;87.30;;;;;;5074007;28;20438;-59
2021/07/01 04:57:15;;;;;;;6.45;2.17;;;22.40;87.50;;;;;;5055893;28;20033;-59
2021/07/01 04:59:41;;;;;;;7.45;2.20;;;22.60;87.70;;;;;;5055745;28;20089;-59
2021/07/01 05:02:06;;;;;;;5.85;1.90;;;22.40;88.80;;;;;;5038111;28;20041;-59
2021/07/01 05:04:32;;;;;;;5.88;1.98;;;22.40;90.00;;;;;;5074006;28;20032;-59
2021/07/01 05:06:58;;;;;;;5.47;2.50;;;22.30;90.10;;;;;;5073731;28;20117;-59
2021/07/01 05:09:23;;;;;;;4.85;1.90;;;22.30;88.10;;;;;;5072291;28;20037;-59
2021/07/01 05:11:49;;;;;;;8.30;2.20;;;22.20;89.80;;;;;;5061582;28;20057;-59
2021/07/01 05:14:15;;;;;;;5.32;2.08;;;22.20;88.00;;;;;;5055382;28;20111;-59
2021/07/01 05:16:41;;;;;;;6.40;2.10;;;22.30;88.70;;;;;;5053465;28;20037;-60
2021/07/01 05:19:07;;;;;;;4.15;2.60;;;22.30;89.50;;;;;;5053333;28;20024;-60
2021/07/01 05:21:32;;;;;;;5.93;2.58;;;22.30;89.10;;;;;;5053644;28;20037;-59
2021/07/01 05:23:58;;;;;;;5.82;2.38;;;22.10;90.30;;;;;;5053275;28;20138;-59
2021/07/01 05:26:24;;;;;;;7.60;1.98;;;22.20;90.10;;;;;;5054376;28;20060;-60
2021/07/01 05:28:50;;;;;;;1.83;1.65;;;22.40;90.10;;;;;;5064776;28;20063;-60
2021/07/01 05:31:16;;;;;;;6.18;2.22;;;22.50;88.70;;;;;;5063020;28;20090;-59
2021/07/01 05:33:41;;;;;;;4.70;1.95;;;22.40;87.40;;;;;;5071789;28;20391;-59
2021/07/01 05:36:09;;;;;;;3.65;2.05;;;;;;;;;;5072845;28;20070;-59
2021/07/01 05:38:34;;;;;;;7.32;1.88;;;22.60;88.40;;;;;;5073427;28;20020;-59
2021/07/01 05:41:00;;;;;;;7.78;2.20;;;22.50;87.10;;;;;;5073066;28;20112;-59
2021/07/01 05:43:26;;;;;;;5.70;2.10;;;22.50;86.20;;;;;;5073290;28;20036;-59
2021/07/01 05:45:53;;;;;;;6.40;2.00;;;22.60;86.20;;;;;;5068506;28;20024;-59
2021/07/01 05:48:19;;;;;;;8.75;2.45;;;22.80;86.20;;;;;;5054420;28;20067;-59
2021/07/01 05:51:02;;;;;;;5.35;1.85;;;22.80;86.80;;;;;;5062466;28;20025;-59
2021/07/01 05:53:36;;;;;;;7.95;1.90;;;22.80;86.20;;;;;;5064862;28;20031;-59
2021/07/01 05:56:03;;;;;;;5.80;2.13;;;22.60;87.00;;;;;;5061916;28;20467;-60
2021/07/01 05:58:29;;;;;;;5.15;1.95;;;22.70;86.90;;;;;;5065565;28;20043;-59
2021/07/01 06:00:55;;;;;;;11.43;2.00;;;22.70;87.30;;;;;;5061571;28;20032;-59
2021/07/01 06:03:20;;;;;;;9.10;2.47;;;22.90;87.60;;;;;;5058507;28;20036;-59
2021/07/01 06:05:52;;;;;;;13.63;2.92;;;;;;;;;;5058178;28;20040;-60
2021/07/01 06:08:21;;;;;;;7.43;2.38;;;;;;;;;;5055080;28;20040;-60
2021/07/01 06:10:47;;;;;;;8.20;2.35;;;23.20;87.00;;;;;;5055782;28;20017;-59
2021/07/01 06:13:16;;;;;;;8.93;2.88;;;23.40;87.30;;;;;;5053041;28;20135;-60
2021/07/01 06:15:43;;;;;;;7.57;4.75;;;23.40;86.80;;;;;;5052964;28;20036;-60
2021/07/01 06:18:09;;;;;;;6.18;2.47;;;;;;;;;;5055231;28;20039;-59
2021/07/01 06:20:35;;;;;;;6.68;2.60;;;;;;;;;;5043939;28;20043;-59
2021/07/01 06:23:01;;;;;;;12.68;2.45;;;;;;;;;;5061604;28;20074;-59
2021/07/01 06:25:28;;;;;;;6.20;2.42;;;24.10;84.30;;;;;;5061383;28;20384;-60
2021/07/01 06:27:54;;;;;;;6.43;2.15;;;23.90;85.00;;;;;;5045242;28;20072;-61
2021/07/01 06:30:21;;;;;;;9.25;2.30;;;24.00;84.70;;;;;;5069042;28;20042;-59
2021/07/01 06:32:51;;;;;;;8.18;1.90;;;24.00;85.10;;;;;;5065060;28;20020;-59
2021/07/01 06:35:24;;;;;;;5.65;2.10;;;23.80;85.40;;;;;;5059820;28;20435;-62
2021/07/01 06:37:52;;;;;;;5.63;1.90;;;23.70;86.40;;;;;;5076919;28;20475;-59
2021/07/01 06:40:19;;;;;;;6.20;1.80;;;23.90;84.60;;;;;;5076712;28;20046;-59
2021/07/01 06:42:50;;;;;;;7.07;1.77;;;23.90;84.80;;;;;;5076785;28;20033;-59
2021/07/01 06:45:19;;;;;;;5.07;2.00;;;24.20;83.60;;;;;;5056326;28;20070;-62
2021/07/01 06:47:46;;;;;;;6.47;1.60;;;24.20;83.70;;;;;;5064167;28;20041;-60
2021/07/01 06:50:14;;;;;;;7.00;1.70;;;24.50;81.70;;;;;;5056063;28;20057;-60
2021/07/01 06:52:43;;;;;;;8.38;1.92;;;;;;;;;;5056028;28;20029;-59
2021/07/01 06:55:09;;;;;;;11.23;2.30;;;;;;;;;;5070096;28;20039;-59
2021/07/01 06:57:36;;;;;;;5.50;1.95;;;24.70;80.70;;;;;;5037845;28;20400;-60
2021/07/01 07:00:03;;;;;;;7.35;2.13;;;24.60;80.40;;;;;;5056374;28;20029;-64
2021/07/01 07:02:33;;;;;;;7.10;1.67;;;24.70;81.10;;;;;;5056377;28;20115;-60
2021/07/01 07:05:05;;;;;;;6.68;1.92;;;24.80;80.60;;;;;;5067465;28;20041;-59
2021/07/01 07:07:34;;;;;;;4.68;1.67;;;25.00;79.60;;;;;;5063919;28;20499;-60
2021/07/01 07:10:04;;;;;;;4.57;1.83;;;24.80;80.70;;;;;;5065893;28;20479;-59
2021/07/01 07:12:32;;;;;;;5.68;1.75;;;24.60;80.10;;;;;;5064972;28;20025;-59
2021/07/01 07:14:58;;;;;;;3.65;1.92;;;24.70;80.20;;;;;;5065569;28;20426;-59
2021/07/01 07:17:28;;;;;;;5.05;1.65;;;24.90;80.20;;;;;;5061822;28;20032;-60
2021/07/01 07:19:59;;;;;;;7.95;2.10;;;;;;;;;;5074952;28;20107;-60
2021/07/01 07:22:29;;;;;;;5.10;1.60;;;25.20;79.10;;;;;;5076173;28;20078;-59
2021/07/01 07:25:01;;;;;;;5.70;1.70;;;25.30;78.70;;;;;;5078512;28;20036;-61
2021/07/01 07:27:28;;;;;;;7.40;1.70;;;25.30;79.20;;;;;;5055561;28;20029;-63
2021/07/01 07:29:54;;;;;;;3.88;1.80;;;;;;;;;;5063357;28;20060;-60
2021/07/01 07:32:24;;;;;;;11.38;2.22;;;25.70;77.60;;;;;;5071604;28;20484;-59
2021/07/01 07:34:50;;;;;;;9.50;1.90;;;25.60;77.80;;;;;;5057676;28;20056;-59
2021/07/01 07:37:17;;;;;;;5.55;1.92;;;;;;;;;;5081646;28;20026;-59
2021/07/01 07:39:45;;;;;;;6.38;1.90;;;26.00;76.60;;;;;;5071768;28;20033;-59
2021/07/01 07:42:12;;;;;;;7.88;1.83;;;25.80;76.60;;;;;;5070764;28;20383;-58
2021/07/01 07:44:41;;;;;;;4.38;1.80;;;25.40;78.00;;;;;;5071038;28;20499;-59
2021/07/01 07:47:11;;;;;;;10.25;1.98;;;25.60;78.90;;;;;;5062938;28;20029;-58
2021/07/01 07:49:37;;;;;;;8.10;2.05;;;26.00;78.10;;;;;;5070076;28;20025;-59
2021/07/01 07:52:06;;;;;;;7.38;2.20;;;26.00;77.40;;;;;;5023678;28;20032;-61
2021/07/01 07:54:48;;;;;;;5.00;1.95;;;25.60;80.00;;;;;;5073739;28;20078;-58
2021/07/01 07:57:16;;;;;;;6.20;1.90;;;25.70;78.80;;;;;;5069570;28;20502;-59
2021/07/01 07:59:46;;;;;;;9.10;2.00;;;26.00;79.70;;;;;;5069997;28;20032;-59
2021/07/01 08:02:41;;;;;;;6.63;1.92;;;26.40;77.10;;;;;;5063242;28;20021;-59
2021/07/01 08:05:09;;;;;;;9.48;2.10;;;26.60;76.30;;;;;;5016196;28;20045;-59
2021/07/01 08:07:38;;;;;;;3.80;1.85;;;26.70;76.10;;;;;;4977464;28;20061;-59
2021/07/01 08:10:11;;;;;;;9.50;1.70;;;26.80;76.30;;;;;;5020139;28;20093;-59
2021/07/01 08:12:41;;;;;;;5.40;2.20;;;26.80;75.30;;;;;;5027686;28;20092;-61
2021/07/01 08:15:15;;;;;;;3.58;2.13;;;26.60;76.00;;;;;;5014585;28;20053;-65
2021/07/01 08:17:46;;;;;;;9.38;2.45;;;26.50;76.80;;;;;;5018964;28;20030;-65
2021/07/01 08:20:14;;;;;;;8.63;2.17;;;25.90;76.80;;;;;;5024732;28;20095;-66
2021/07/01 08:22:43;;;;;;;6.28;2.03;;;25.90;78.40;;;;;;4993750;28;20045;-60
2021/07/01 08:25:10;;;;;;;5.90;2.42;;;26.20;79.70;;;;;;4991941;28;20395;-61
2021/07/01 08:27:38;;;;;;;5.63;2.08;;;26.30;81.50;;;;;;4993897;28;20136;-60
2021/07/01 08:30:08;;;;;;;3.88;1.80;;;26.80;96.20;;;;;;4996742;28;20068;-59
2021/07/01 08:32:34;;;;;;;2.72;1.73;;;26.80;76.00;;;;;;4964743;28;20046;-60
2021/07/01 08:35:00;;;;;;;5.10;2.03;;;26.70;82.90;;;;;;4998531;28;20054;-61
2021/07/01 08:37:28;;;;;;;8.82;1.90;;;26.40;79.30;;;;;;4975249;28;20049;-59
2021/07/01 08:39:55;;;;;;;11.90;2.22;;;27.10;74.10;;;;;;4994744;28;20030;-60
2021/07/01 08:42:26;;;;;;;2.97;1.58;;;27.30;75.10;;;;;;5031706;28;20041;-60
2021/07/01 08:45:03;;;;;;;6.22;2.00;;;27.60;73.10;;;;;;5057597;28;20475;-62
2021/07/01 08:47:42;;;;;;;4.88;1.48;;;27.70;71.60;;;;;;5021865;28;20064;-59
2021/07/01 08:50:16;;;;;;;7.43;2.33;;;27.60;71.20;;;;;;5029193;28;20033;-59
2021/07/01 08:53:15;;;;;;;3.30;1.70;;;27.90;70.40;;;;;;5055097;28;20484;-59
2021/07/01 08:55:42;;;;;;;5.35;1.63;;;28.30;69.30;;;;;;5070808;28;20064;-59
2021/07/01 08:58:12;;;;;;;3.83;1.55;;;28.30;69.90;;;;;;5082441;28;20547;-61
2021/07/01 09:00:42;;;;;;;2.38;1.10;;;29.80;68.40;;;;;;5073910;28;20059;-59
2021/07/01 09:03:09;;;;;;;2.60;1.20;;;30.60;66.30;;;;;;5074327;28;20030;-59
2021/07/01 09:05:39;;;;;;;9.82;2.33;;;30.20;66.10;;;;;;5077246;28;20547;-59
2021/07/01 09:08:10;;;;;;;3.58;1.55;;;30.60;65.20;;;;;;5072064;28;20048;-63
2021/07/01 09:10:48;;;;;;;3.95;1.75;;;31.60;63.30;;;;;;5066306;28;20032;-61
2021/07/01 09:13:16;;;;;;;3.88;1.25;;;32.80;60.90;;;;;;5034838;28;20044;-61
2021/07/01 09:15:42;;;;;;;9.65;1.40;;;31.60;61.20;;;;;;5073461;28;20059;-63
2021/07/01 09:18:10;;;;;;;7.20;1.65;;;30.00;64.50;;;;;;5069028;28;20410;-61
2021/07/01 09:20:38;;;;;;;6.75;1.60;;;30.20;64.50;;;;;;5071735;28;20434;-64
2021/07/01 09:23:08;;;;;;;3.78;1.30;;;31.70;63.60;;;;;;5080327;28;20056;-60
2021/07/01 09:25:34;;;;;;;4.75;1.20;;;33.00;59.40;;;;;;5069945;28;20043;-61
2021/07/01 09:28:01;;;;;;;4.85;1.48;;;33.60;57.80;;;;;;5074316;28;20067;-61
2021/07/01 09:30:29;;;;;;;3.53;1.20;;;32.80;57.80;;;;;;5057197;28;20040;-61
2021/07/01 09:33:02;;;;;;;4.72;1.25;;;30.90;61.20;;;;;;5070399;28;20052;-62
2021/07/01 09:35:33;;;;;;;2.33;1.20;;;31.30;61.40;;;;;;5074817;28;20160;-61
2021/07/01 09:38:07;;;;;;;1.95;1.15;;;32.50;60.00;;;;;;5076743;28;20119;-60
2021/07/01 09:40:36;;;;;;;4.32;1.17;;;33.60;57.10;;;;;;5027856;28;20058;-63
2021/07/01 09:43:05;;;;;;;2.08;1.00;;;33.30;59.30;;;;;;5075497;28;20074;-61
2021/07/01 09:45:33;;;;;;;1.92;0.90;;;35.50;55.60;;;;;;5070632;28;20468;-61
2021/07/01 09:48:09;;;;;;;6.80;1.30;;;36.50;53.70;;;;;;5083418;28;20032;-62
2021/07/01 09:50:49;;;;;;;3.83;1.25;;;36.50;54.00;;;;;;5071641;28;20036;-60
2021/07/01 09:53:31;;;;;;;2.17;1.10;;;37.70;52.70;;;;;;5071786;28;20127;-60
2021/07/01 09:56:02;;;;;;;4.82;1.30;;;37.50;51.60;;;;;;5081346;28;20058;-60
2021/07/01 09:58:31;;;;;;;3.78;1.27;;;37.30;52.60;;;;;;5072689;28;20029;-59
2021/07/01 10:00:57;;;;;;;3.25;1.27;;;37.20;52.80;;;;;;5078116;28;20079;-58
2021/07/01 10:03:23;;;;;;;7.47;1.48;;;37.90;50.60;;;;;;5066915;28;20028;-60
2021/07/01 10:05:49;;;;;;;4.72;1.40;;;36.50;51.20;;;;;;5076785;28;20038;-58
2021/07/01 10:08:15;;;;;;;6.30;1.35;;;35.50;52.50;;;;;;5058351;28;20044;-59
2021/07/01 10:10:49;;;;;;;5.70;1.38;;;37.30;50.80;;;;;;5070101;28;20488;-59
2021/07/01 10:13:17;;;;;;;4.03;1.10;;;38.70;50.50;;;;;;5072919;28;20064;-59
2021/07/01 10:15:46;;;;;;;3.47;1.25;;;39.50;48.10;;;;;;5076684;28;20024;-59
2021/07/01 10:18:14;;;;;;;4.25;1.33;;;39.10;48.80;;;;;;5079366;28;20020;-59
2021/07/01 10:20:51;;;;;;;3.58;1.27;;;38.90;50.40;;;;;;5069418;28;20029;-59
2021/07/01 10:23:22;;;;;;;8.52;1.30;;;38.70;51.80;;;;;;5070951;28;20410;-58
2021/07/01 10:25:50;;;;;;;;;;;40.20;52.20;;;;;;5077271;28;20033;-59
2021/07/01 10:28:18;;;;;;;2.72;1.35;;;41.00;47.90;;;;;;5079653;28;19912;-59
2021/07/01 10:31:13;;;;;;;4.03;1.73;;;42.70;54.30;;;;;;5077737;28;20063;-59
2021/07/01 10:33:41;;;;;;;1.42;1.08;;;44.20;45.70;;;;;;5073967;28;20040;-59
2021/07/01 10:36:20;;;;;;;6.07;1.58;;;41.60;43.50;;;;;;5072040;28;20056;-59
2021/07/01 10:38:48;;;;;;;5.30;1.13;;;;;;;;;;5067467;28;20045;-58
2021/07/01 10:41:27;;;;;;;3.95;1.10;;;39.30;47.50;;;;;;5071578;28;20032;-59
2021/07/01 10:43:52;;;;;;;4.88;1.27;;;39.70;47.70;;;;;;5077814;28;20081;-59
2021/07/01 10:46:19;;;;;;;3.88;1.42;;;;;;;;;;5077159;28;20574;-59
2021/07/01 10:48:56;;;;;;;2.25;1.20;;;40.20;46.40;;;;;;5074870;28;20035;-61
2021/07/01 10:51:24;;;;;;;4.88;1.40;;;40.00;47.10;;;;;;5072944;28;20610;-60
2021/07/01 10:53:50;;;;;;;5.45;1.00;;;40.10;47.50;;;;;;5072731;28;20044;-60
2021/07/01 10:56:16;;;;;;;4.60;1.60;;;;;;;;;;5065032;28;20028;-59
2021/07/01 10:58:44;;;;;;;6.30;1.20;;;41.50;43.90;;;;;;5068578;28;20090;-58
2021/07/01 11:01:26;;;;;;;2.35;1.00;;;42.20;46.70;;;;;;5068421;28;20158;-59
2021/07/01 11:04:10;;;;;;;7.25;1.10;;;42.30;43.50;;;;;;5059817;28;20029;-59
2021/07/01 11:06:38;;;;;;;4.35;1.08;;;42.60;43.80;;;;;;5061416;28;20044;-58
2021/07/01 11:09:06;;;;;;;5.40;1.30;;;40.90;44.80;;;;;;5079316;28;20050;-59
2021/07/01 11:11:35;;;;;;;5.65;1.05;;;38.90;45.90;;;;;;5064476;28;20058;-59
2021/07/01 11:14:08;;;;;;;2.35;1.10;;;40.20;46.00;;;;;;5067060;28;20036;-59
2021/07/01 11:16:38;;;;;;;1.80;1.08;;;42.60;44.30;;;;;;5063285;28;20434;-59
2021/07/01 11:19:06;;;;;;;2.63;1.10;;;42.30;43.20;;;;;;5077624;28;20047;-60
2021/07/01 11:21:32;;;;;;;2.47;0.90;;;43.40;42.20;;;;;;5075099;28;20511;-60
2021/07/01 11:24:17;;;;;;;5.25;1.58;;;42.40;42.40;;;;;;5070282;28;20024;-59
2021/07/01 11:26:45;;;;;;;5.45;1.20;;;43.70;43.20;;;;;;5069228;28;20090;-59
2021/07/01 11:29:11;;;;;;;5.47;1.20;;;44.70;42.70;;;;;;5070727;28;20039;-59
2021/07/01 11:31:46;;;;;;;4.20;1.50;;;44.60;42.00;;;;;;5071174;28;20021;-59
2021/07/01 11:34:18;;;;;;;3.30;1.00;;;45.50;42.20;;;;;;5070784;28;20053;-60
2021/07/01 11:36:52;;;;;;;6.50;1.20;;;43.10;42.30;;;;;;5075452;28;20181;-59
2021/07/01 11:39:25;;;;;;;4.97;1.05;;;44.90;41.70;;;;;;5084781;28;20043;-59
2021/07/01 11:41:52;;;;;;;4.53;1.15;;;44.90;42.20;;;;;;5073667;28;20494;-59
2021/07/01 11:44:19;;;;;;;2.97;1.20;;;44.40;41.40;;;;;;5072786;28;20024;-60
2021/07/01 11:46:45;;;;;;;2.17;1.10;;;45.60;40.90;;;;;;5067895;28;20142;-59
2021/07/01 11:49:12;;;;;;;4.15;0.98;;;45.90;40.50;;;;;;5074753;28;20043;-60
2021/07/01 11:51:39;;;;;;;4.45;1.25;;;47.50;50.30;;;;;;5072260;28;20041;-60
2021/07/01 11:54:05;;;;;;;2.10;1.00;;;46.90;49.10;;;;;;5039628;28;20063;-61
2021/07/01 11:56:53;;;;;;;3.08;1.00;;;;;;;;;;5056866;28;20045;-61
2021/07/01 11:59:18;;;;;;;5.57;1.38;;;;;;;;;;5074368;28;20037;-59
2021/07/01 12:01:45;;;;;;;1.85;1.02;;;44.50;40.60;;;;;;5059977;28;20064;-61
2021/07/01 12:04:12;;;;;;;2.65;1.00;;;45.40;40.20;;;;;;5071886;28;20480;-59
2021/07/01 12:06:58;;;;;;;3.25;1.00;;;44.30;40.30;;;;;;5071526;28;20115;-59
2021/07/01 12:09:25;;;;;;;3.00;0.95;;;45.60;40.10;;;;;;5052662;28;20119;-60
2021/07/01 12:12:03;;;;;;;1.90;0.70;;;47.50;40.40;;;;;;5071658;28;20028;-59
2021/07/01 12:14:34;;;;;;;2.33;0.90;;;45.50;39.70;;;;;;5071812;28;20047;-60
2021/07/01 12:17:00;;;;;;;3.90;0.95;;;45.50;39.30;;;;;;5079517;28;20079;-58
2021/07/01 12:19:47;;;;;;;4.50;1.52;;;46.90;40.40;;;;;;5072416;28;20033;-59
2021/07/01 12:22:40;;;;;;;3.78;1.08;;;47.00;39.20;;;;;;5072688;28;20077;-59
2021/07/01 12:25:32;;;;;;;3.03;1.10;;;48.20;39.80;;;;;;5070640;28;20479;-61
2021/07/01 12:28:04;;;;;;;1.77;0.90;;;45.00;39.20;;;;;;5043425;28;20078;-63
2021/07/01 12:31:04;;;;;;;2.20;0.90;;;44.50;41.20;;;;;;5038117;28;20043;-62
2021/07/01 12:33:38;;;;;;;4.40;1.23;;;42.40;40.50;;;;;;5008554;28;20213;-59
2021/07/01 12:36:21;;;;;;;3.78;1.00;;;42.90;41.00;;;;;;4995260;28;20061;-60
2021/07/01 12:39:11;;;;;;;12.20;1.90;;;40.10;41.80;;;;;;5013871;28;20073;-59
2021/07/01 12:41:55;;;;;;;5.88;1.25;;;39.60;43.00;;;;;;5011852;28;20044;-61
2021/07/01 12:44:29;;;;;;;3.60;1.00;;;41.80;43.20;;;;;;5010471;28;20046;-59
2021/07/01 12:47:01;;;;;;;2.72;0.98;;;44.80;41.60;;;;;;5012384;28;20034;-59
2021/07/01 12:49:33;;;;;;;2.85;0.80;;;46.00;40.00;;;;;;5007404;28;20039;-58
2021/07/01 12:52:09;;;;;;;1.35;1.00;;;47.90;38.80;;;;;;5008580;28;20037;-58
2021/07/01 12:54:35;;;;;;;1.70;0.85;;;;;;;;;;5006163;28;20068;-59
2021/07/01 12:57:01;;;;;;;4.40;1.20;;;47.70;51.60;;;;;;5006415;28;20116;-59
2021/07/01 12:59:31;;;;;;;3.08;0.93;;;47.00;39.80;;;;;;5029128;28;20286;-59
2021/07/01 13:02:11;;;;;;;3.25;1.02;;;49.00;49.50;;;;;;5032351;28;20192;-58
2021/07/01 13:04:41;;;;;;;2.83;1.10;;;49.70;39.60;;;;;;5029452;28;20521;-59